createdAt,value
2017-03-30T00:03:00.413Z,0
2017-03-30T00:03:28.681Z,0
2017-03-30T00:03:57.292Z,0
2017-03-30T00:04:26.284Z,0
2017-03-30T00:05:49.072Z,0
2017-03-30T00:06:17.306Z,0
2017-03-30T00:06:45.707Z,0
2017-03-30T00:07:14.363Z,0
2017-03-30T00:07:42.595Z,0
2017-03-30T00:15:00.124Z,0
2017-03-30T00:15:28.443Z,0
2017-03-30T00:15:57.160Z,0
2017-03-30T00:16:25.616Z,0
2017-03-30T00:16:54.392Z,0
2017-03-30T00:17:22.563Z,0
2017-03-30T00:20:40.126Z,0
2017-03-30T00:21:08.390Z,0
2017-03-30T00:22:31.188Z,0
2017-03-30T00:22:59.985Z,0
2017-03-30T00:23:28.294Z,0
2017-03-30T00:23:56.704Z,0
2017-03-30T00:28:19.686Z,0
2017-03-30T00:28:48.788Z,0
2017-03-30T00:29:17.505Z,0
2017-03-30T00:29:46.594Z,0
2017-03-30T00:34:09.807Z,0
2017-03-30T00:34:38.176Z,0
2017-03-30T00:35:06.605Z,0
2017-03-30T00:35:35.595Z,0
2017-03-30T00:36:03.868Z,0
2017-03-30T00:36:32.327Z,0
2017-03-30T00:37:00.806Z,0
2017-03-30T00:40:29.367Z,0
2017-03-30T00:40:57.625Z,0
2017-03-30T00:41:40.431Z,0
2017-03-30T00:43:09.239Z,0
2017-03-30T00:43:37.528Z,0
2017-03-30T00:46:49.350Z,0
2017-03-30T00:47:17.974Z,0
2017-03-30T00:47:46.388Z,0
2017-03-30T00:48:14.823Z,0
2017-03-30T00:48:43.208Z,0
2017-03-30T00:49:11.958Z,0
2017-03-30T00:49:40.300Z,0
2017-03-30T00:52:09.121Z,0
2017-03-30T00:52:37.429Z,0
2017-03-30T00:53:05.763Z,0
2017-03-30T00:53:34.841Z,0
2017-03-30T00:56:09.154Z,0
2017-03-30T00:56:37.408Z,0
2017-03-30T00:57:48.955Z,0
2017-03-30T00:58:17.583Z,0
2017-03-30T00:58:45.955Z,0
2017-03-30T01:00:08.703Z,0
2017-03-30T01:00:37.185Z,0
2017-03-30T01:04:49.326Z,0
2017-03-30T01:05:18.716Z,0
2017-03-30T01:05:47.211Z,0
2017-03-30T01:06:16.177Z,0
2017-03-30T01:06:44.618Z,0
2017-03-30T01:07:12.887Z,0
2017-03-30T01:07:41.013Z,0
2017-03-30T01:08:10.187Z,0
2017-03-30T01:08:39.304Z,0
2017-03-30T01:11:08.306Z,0
2017-03-30T01:11:36.426Z,0
2017-03-30T01:12:05.567Z,0
2017-03-30T01:16:28.615Z,0
2017-03-30T01:16:56.896Z,0
2017-03-30T01:17:25.057Z,0
2017-03-30T01:17:53.961Z,0
2017-03-30T01:19:28.971Z,0
2017-03-30T01:19:57.243Z,0
2017-03-30T01:20:25.661Z,0
2017-03-30T01:20:54.125Z,0
2017-03-30T01:21:22.796Z,0
2017-03-30T01:21:51.327Z,0
2017-03-30T01:22:19.801Z,0
2017-03-30T01:22:48.161Z,0
2017-03-30T01:23:16.592Z,0
2017-03-30T01:24:28.041Z,0
2017-03-30T01:24:56.246Z,0
2017-03-30T01:26:19.542Z,0
2017-03-30T01:26:49.073Z,0
2017-03-30T01:27:18.183Z,0
2017-03-30T01:27:46.501Z,0
2017-03-30T01:29:12.361Z,0
2017-03-30T01:29:40.733Z,0
2017-03-30T01:30:09.186Z,0
2017-03-30T01:30:38.271Z,0
2017-03-30T01:31:06.668Z,0
2017-03-30T01:31:35.123Z,0
2017-03-30T01:32:03.584Z,0
2017-03-30T01:32:32.283Z,0
2017-03-30T01:33:00.949Z,0
2017-03-30T01:34:35.545Z,0
2017-03-30T01:35:03.739Z,0
2017-03-30T01:39:37.585Z,0
2017-03-30T01:40:05.892Z,0
2017-03-30T01:40:34.821Z,0
2017-03-30T01:41:58.096Z,0
2017-03-30T01:42:26.354Z,0
2017-03-30T01:42:54.768Z,0
2017-03-30T01:44:17.666Z,0
2017-03-30T01:44:45.986Z,0
2017-03-30T01:45:57.509Z,0
2017-03-30T01:46:26.194Z,0
2017-03-30T01:46:54.504Z,0
2017-03-30T01:47:23.474Z,0
2017-03-30T01:47:51.984Z,0
2017-03-30T01:48:20.176Z,0
2017-03-30T01:50:37.247Z,0
2017-03-30T01:51:05.757Z,0
2017-03-30T01:51:34.675Z,0
2017-03-30T01:52:03.011Z,0
2017-03-30T01:53:19.822Z,0
2017-03-30T01:53:48.313Z,0
2017-03-30T01:54:17.513Z,0
2017-03-30T01:54:45.884Z,0
2017-03-30T01:55:15.163Z,0
2017-03-30T01:55:44.149Z,0
2017-03-30T01:56:13.185Z,0
2017-03-30T01:56:41.847Z,0
2017-03-30T01:57:09.819Z,0
2017-03-30T01:57:38.919Z,0
2017-03-30T01:58:07.212Z,0
2017-03-30T01:58:35.525Z,0
2017-03-30T01:59:47.500Z,0
2017-03-30T02:00:15.674Z,0
2017-03-30T02:05:27.456Z,0
2017-03-30T02:05:55.697Z,0
2017-03-30T02:07:18.237Z,0
2017-03-30T02:07:47.316Z,0
2017-03-30T02:08:15.705Z,0
2017-03-30T02:08:44.116Z,0
2017-03-30T02:11:07.382Z,0
2017-03-30T02:11:36.005Z,0
2017-03-30T02:12:04.344Z,0
2017-03-30T02:12:32.860Z,0
2017-03-30T02:16:55.226Z,0
2017-03-30T02:19:07.110Z,0
2017-03-30T02:19:35.487Z,0
2017-03-30T02:20:03.502Z,0
2017-03-30T02:20:32.766Z,0
2017-03-30T02:22:06.971Z,0
2017-03-30T02:22:35.640Z,0
2017-03-30T02:23:04.150Z,0
2017-03-30T02:23:32.402Z,0
2017-03-30T02:26:07.169Z,0
2017-03-30T02:26:35.277Z,0
2017-03-30T02:27:03.835Z,0
2017-03-30T02:27:32.214Z,0
2017-03-30T02:40:06.127Z,0
2017-03-30T02:40:34.686Z,0
2017-03-30T02:41:46.024Z,0
2017-03-30T02:42:14.458Z,0
2017-03-30T02:42:43.753Z,0
2017-03-30T02:43:11.936Z,0
2017-03-30T02:44:46.475Z,0
2017-03-30T02:45:15.016Z,0
2017-03-30T02:45:43.083Z,0
2017-03-30T02:48:06.435Z,0
2017-03-30T02:48:36.104Z,0
2017-03-30T02:49:04.354Z,0
2017-03-30T02:49:33.504Z,0
2017-03-30T02:50:01.837Z,0
2017-03-30T02:50:29.924Z,0
2017-03-30T02:50:59.065Z,0
2017-03-30T02:51:28.012Z,0
2017-03-30T02:51:56.333Z,0
2017-03-30T02:52:24.729Z,0
2017-03-30T02:52:53.448Z,0
2017-03-30T02:53:21.735Z,0
2017-03-30T02:57:56.127Z,0
2017-03-30T02:58:24.340Z,0
2017-03-30T03:03:35.634Z,0
2017-03-30T03:04:04.154Z,0
2017-03-30T03:06:15.964Z,0
2017-03-30T03:06:44.439Z,0
2017-03-30T03:07:12.767Z,0
2017-03-30T03:08:35.416Z,0
2017-03-30T03:09:03.576Z,0
2017-03-30T03:10:26.905Z,0
2017-03-30T03:13:55.403Z,0
2017-03-30T03:14:23.718Z,0
2017-03-30T03:15:35.810Z,0
2017-03-30T03:16:04.261Z,0
2017-03-30T03:16:32.564Z,0
2017-03-30T03:17:55.439Z,0
2017-03-30T03:18:23.897Z,0
2017-03-30T03:18:52.148Z,0
2017-03-30T03:19:21.135Z,0
2017-03-30T03:19:49.569Z,0
2017-03-30T03:20:18.070Z,0
2017-03-30T03:21:35.213Z,0
2017-03-30T03:22:03.482Z,0
2017-03-30T03:22:32.531Z,0
2017-03-30T03:24:55.364Z,0
2017-03-30T03:25:23.598Z,0
2017-03-30T03:27:35.190Z,0
2017-03-30T03:28:05.305Z,0
2017-03-30T03:28:33.639Z,0
2017-03-30T03:29:02.050Z,0
2017-03-30T03:29:31.122Z,0
2017-03-30T03:29:59.641Z,0
2017-03-30T03:30:27.966Z,0
2017-03-30T03:30:56.537Z,0
2017-03-30T03:31:24.944Z,0
2017-03-30T03:31:54.003Z,0
2017-03-30T03:32:22.379Z,0
2017-03-30T03:32:51.213Z,0
2017-03-30T03:33:19.759Z,0
2017-03-30T03:33:48.246Z,0
2017-03-30T03:34:16.305Z,0
2017-03-30T03:35:45.169Z,0
2017-03-30T03:36:13.512Z,0
2017-03-30T03:36:41.670Z,0
2017-03-30T03:37:10.722Z,0
2017-03-30T03:37:39.164Z,0
2017-03-30T03:38:08.074Z,0
2017-03-30T03:38:36.401Z,0
2017-03-30T03:43:04.704Z,0
2017-03-30T03:43:33.310Z,0
2017-03-30T03:44:02.219Z,0
2017-03-30T03:44:30.537Z,0
2017-03-30T03:48:04.953Z,0
2017-03-30T03:48:33.239Z,0
2017-03-30T03:49:01.588Z,0
2017-03-30T03:49:30.784Z,0
2017-03-30T03:49:58.822Z,0
2017-03-30T03:50:27.651Z,0
2017-03-30T03:50:55.864Z,0
2017-03-30T03:52:24.849Z,0
2017-03-30T03:52:53.233Z,0
2017-03-30T03:53:21.452Z,0
2017-03-30T03:53:50.539Z,0
2017-03-30T03:54:19.165Z,0
2017-03-30T03:54:47.998Z,0
2017-03-30T03:55:16.258Z,0
2017-03-30T03:55:44.563Z,0
2017-03-30T03:56:12.753Z,0
2017-03-30T03:56:42.236Z,0
2017-03-30T03:57:10.353Z,0
2017-03-30T03:57:38.713Z,0
2017-03-30T03:58:07.399Z,0
2017-03-30T03:58:35.836Z,0
2017-03-30T03:59:04.252Z,0
2017-03-30T03:59:32.656Z,0
2017-03-30T04:00:44.553Z,0
2017-03-30T04:01:12.772Z,0
2017-03-30T04:03:24.248Z,0
2017-03-30T04:03:52.432Z,0
2017-03-30T04:04:21.575Z,0
2017-03-30T04:04:49.972Z,0
2017-03-30T04:05:18.540Z,0
2017-03-30T04:05:46.886Z,0
2017-03-30T04:09:04.129Z,0
2017-03-30T04:09:32.580Z,0
2017-03-30T04:10:44.023Z,0
2017-03-30T04:11:12.510Z,0
2017-03-30T04:12:24.233Z,0
2017-03-30T04:12:52.591Z,0
2017-03-30T04:14:52.284Z,0
2017-03-30T04:18:04.254Z,0
2017-03-30T04:18:32.506Z,0
2017-03-30T04:19:01.102Z,0
2017-03-30T04:19:29.467Z,0
2017-03-30T04:21:04.081Z,0
2017-03-30T04:21:32.429Z,0
2017-03-30T04:22:00.876Z,0
2017-03-30T04:23:23.632Z,0
2017-03-30T04:23:52.144Z,0
2017-03-30T04:26:04.052Z,0
2017-03-30T04:26:32.603Z,0
2017-03-30T04:27:01.006Z,0
2017-03-30T04:27:29.270Z,0
2017-03-30T04:27:57.471Z,0
2017-03-30T04:28:26.346Z,0
2017-03-30T04:29:43.576Z,0
2017-03-30T04:30:11.842Z,0
2017-03-30T04:30:40.917Z,0
2017-03-30T04:31:09.185Z,0
2017-03-30T04:36:43.626Z,0
2017-03-30T04:37:11.686Z,0
2017-03-30T04:37:40.861Z,0
2017-03-30T04:38:09.087Z,0
2017-03-30T04:38:38.248Z,0
2017-03-30T04:39:06.879Z,0
2017-03-30T04:39:35.569Z,0
2017-03-30T04:40:03.980Z,0
2017-03-30T04:40:32.200Z,0
2017-03-30T04:41:00.646Z,0
2017-03-30T04:41:29.183Z,0
2017-03-30T04:41:57.872Z,0
2017-03-30T04:42:26.208Z,0
2017-03-30T04:46:43.558Z,0
2017-03-30T04:47:11.805Z,0
2017-03-30T04:47:40.074Z,0
2017-03-30T04:48:09.122Z,0
2017-03-30T04:51:42.898Z,0
2017-03-30T04:52:11.514Z,0
2017-03-30T04:55:22.872Z,0
2017-03-30T04:55:51.250Z,0
2017-03-30T04:56:20.341Z,0
2017-03-30T04:56:48.476Z,0
2017-03-30T05:04:22.976Z,0
2017-03-30T05:04:51.308Z,0
2017-03-30T05:06:02.752Z,0
2017-03-30T05:06:31.110Z,0
2017-03-30T05:11:42.550Z,0
2017-03-30T05:12:10.940Z,0
2017-03-30T05:15:22.804Z,0
2017-03-30T05:15:51.189Z,0
2017-03-30T05:16:19.382Z,0
2017-03-30T05:16:48.580Z,0
2017-03-30T05:17:16.773Z,0
2017-03-30T05:17:45.031Z,0
2017-03-30T05:18:14.085Z,0
2017-03-30T05:18:42.392Z,0
2017-03-30T05:19:11.451Z,0
2017-03-30T05:19:39.865Z,0
2017-03-30T05:20:08.218Z,0
2017-03-30T05:20:36.640Z,0
2017-03-30T05:21:04.923Z,0
2017-03-30T05:21:34.154Z,0
2017-03-30T05:22:02.489Z,0
2017-03-30T05:22:30.796Z,0
2017-03-30T05:23:42.649Z,0
2017-03-30T05:24:11.053Z,0
2017-03-30T05:24:39.390Z,0
2017-03-30T05:26:02.604Z,0
2017-03-30T05:26:31.112Z,0
2017-03-30T05:26:59.267Z,0
2017-03-30T05:28:22.526Z,0
2017-03-30T05:28:50.849Z,0
2017-03-30T05:29:19.110Z,0
2017-03-30T05:31:42.385Z,0
2017-03-30T05:32:10.521Z,0
2017-03-30T05:34:22.347Z,0
2017-03-30T05:34:50.638Z,0
2017-03-30T05:35:18.916Z,0
2017-03-30T05:35:47.964Z,0
2017-03-30T05:37:21.880Z,0
2017-03-30T05:37:50.080Z,0
2017-03-30T05:38:19.023Z,0
2017-03-30T05:39:42.237Z,0
2017-03-30T05:40:10.229Z,0
2017-03-30T05:41:22.063Z,0
2017-03-30T05:41:50.251Z,0
2017-03-30T05:45:02.136Z,0
2017-03-30T05:45:30.296Z,0
2017-03-30T05:46:42.284Z,0
2017-03-30T05:47:10.578Z,0
2017-03-30T05:47:38.559Z,0
2017-03-30T05:48:07.634Z,0
2017-03-30T05:50:41.898Z,0
2017-03-30T05:51:10.091Z,0
2017-03-30T05:53:21.452Z,0
2017-03-30T05:53:49.685Z,0
2017-03-30T05:54:18.746Z,0
2017-03-30T05:57:41.838Z,0
2017-03-30T05:58:10.074Z,0
2017-03-30T05:58:38.162Z,0
2017-03-30T05:59:07.297Z,0
2017-03-30T06:01:41.703Z,0
2017-03-30T06:02:09.885Z,0
2017-03-30T06:03:21.682Z,0
2017-03-30T06:03:49.917Z,0
2017-03-30T06:11:01.515Z,0
2017-03-30T06:11:29.816Z,0
2017-03-30T06:11:57.952Z,0
2017-03-30T06:12:26.816Z,0
2017-03-30T06:12:55.061Z,0
2017-03-30T06:13:23.970Z,0
2017-03-30T06:13:52.428Z,0
2017-03-30T06:14:21.426Z,0
2017-03-30T06:14:49.739Z,0
2017-03-30T06:15:17.829Z,0
2017-03-30T06:15:46.763Z,0
2017-03-30T06:16:14.901Z,0
2017-03-30T06:16:43.945Z,0
2017-03-30T06:17:12.223Z,0
2017-03-30T06:17:41.204Z,0
2017-03-30T06:18:09.500Z,0
2017-03-30T06:19:20.928Z,0
2017-03-30T06:19:49.098Z,0
2017-03-30T06:20:18.103Z,0
2017-03-30T06:22:41.195Z,0
2017-03-30T06:23:09.227Z,0
2017-03-30T06:23:38.092Z,0
2017-03-30T06:24:06.497Z,0
2017-03-30T06:26:40.939Z,0
2017-03-30T06:27:09.234Z,0
2017-03-30T06:31:21.041Z,0
2017-03-30T06:31:49.179Z,0
2017-03-30T06:35:00.482Z,0
2017-03-30T06:35:28.627Z,0
2017-03-30T06:35:57.635Z,0
2017-03-30T06:37:20.751Z,0
2017-03-30T06:37:49.075Z,0
2017-03-30T06:38:17.309Z,0
2017-03-30T06:38:46.218Z,0
2017-03-30T06:40:21.044Z,0
2017-03-30T06:40:49.312Z,0
2017-03-30T06:41:17.276Z,0
2017-03-30T06:41:46.195Z,0
2017-03-30T06:42:14.328Z,0
2017-03-30T06:42:43.382Z,0
2017-03-30T06:43:11.553Z,0
2017-03-30T06:44:40.646Z,0
2017-03-30T06:45:09.137Z,0
2017-03-30T06:45:37.440Z,0
2017-03-30T06:48:00.595Z,0
2017-03-30T06:48:28.778Z,0
2017-03-30T06:48:57.051Z,0
2017-03-30T06:49:26.053Z,0
2017-03-30T06:53:00.500Z,0
2017-03-30T06:53:28.794Z,0
2017-03-30T06:53:56.929Z,0
2017-03-30T06:54:25.941Z,0
2017-03-30T06:56:00.033Z,0
2017-03-30T06:56:28.257Z,0
2017-03-30T06:56:57.131Z,0
2017-03-30T06:58:20.271Z,0
2017-03-30T06:58:48.340Z,0
2017-03-30T06:59:17.182Z,0
2017-03-30T07:01:39.942Z,0
2017-03-30T07:02:08.270Z,0
2017-03-30T07:03:20.249Z,0
2017-03-30T07:03:48.475Z,0
2017-03-30T07:06:00.054Z,0
2017-03-30T07:06:28.265Z,0
2017-03-30T07:09:39.845Z,0
2017-03-30T07:10:07.847Z,0
2017-03-30T07:10:36.938Z,0
2017-03-30T07:12:48.181Z,0
2017-03-30T07:13:59.805Z,0
2017-03-30T07:14:27.954Z,0
2017-03-30T07:15:39.870Z,0
2017-03-30T07:16:08.039Z,0
2017-03-30T07:19:19.593Z,0
2017-03-30T07:19:47.747Z,0
2017-03-30T07:20:16.694Z,0
2017-03-30T07:21:39.752Z,0
2017-03-30T07:22:08.145Z,0
2017-03-30T07:22:36.263Z,0
2017-03-30T07:23:05.217Z,0
2017-03-30T07:24:39.716Z,0
2017-03-30T07:25:07.787Z,0
2017-03-30T07:26:19.632Z,0
2017-03-30T07:26:47.768Z,0
2017-03-30T07:27:59.128Z,0
2017-03-30T07:28:27.245Z,0
2017-03-30T07:28:56.283Z,0
2017-03-30T07:29:25.224Z,0
2017-03-30T07:31:59.469Z,0
2017-03-30T07:32:27.698Z,0
2017-03-30T07:33:39.042Z,0
2017-03-30T07:34:07.331Z,0
2017-03-30T07:34:36.233Z,0
2017-03-30T07:35:59.448Z,0
2017-03-30T07:36:27.877Z,0
2017-03-30T07:36:56.821Z,0
2017-03-30T07:37:25.094Z,0
2017-03-30T07:37:53.300Z,0
2017-03-30T07:38:21.645Z,0
2017-03-30T07:38:50.696Z,0
2017-03-30T07:39:18.943Z,0
2017-03-30T07:39:47.168Z,0
2017-03-30T07:40:16.209Z,0
2017-03-30T07:41:39.276Z,0
2017-03-30T07:42:07.351Z,0
2017-03-30T07:43:19.174Z,0
2017-03-30T07:43:47.517Z,0
2017-03-30T07:44:15.814Z,0
2017-03-30T07:44:44.853Z,0
2017-03-30T07:45:13.087Z,0
2017-03-30T07:45:41.443Z,0
2017-03-30T07:46:10.394Z,0
2017-03-30T07:47:39.026Z,0
2017-03-30T07:48:07.286Z,0
2017-03-30T07:49:18.745Z,0
2017-03-30T07:49:46.782Z,0
2017-03-30T07:50:14.829Z,0
2017-03-30T07:50:42.969Z,0
2017-03-30T07:51:11.368Z,0
2017-03-30T07:51:40.202Z,0
2017-03-30T07:53:09.018Z,0
2017-03-30T07:53:37.233Z,0
2017-03-30T07:54:05.540Z,0
2017-03-30T07:54:34.561Z,0
2017-03-30T07:56:08.885Z,0
2017-03-30T07:56:37.109Z,0
2017-03-30T07:58:48.821Z,0
2017-03-30T07:59:16.904Z,0
2017-03-30T08:01:28.738Z,0
2017-03-30T08:01:56.879Z,0
2017-03-30T08:04:08.675Z,0
2017-03-30T08:04:36.819Z,0
2017-03-30T08:05:48.687Z,0
2017-03-30T08:06:16.913Z,0
2017-03-30T08:06:45.152Z,0
2017-03-30T08:07:14.044Z,0
2017-03-30T08:07:42.217Z,0
2017-03-30T08:08:11.125Z,0
2017-03-30T08:10:28.562Z,0
2017-03-30T08:10:56.796Z,0
2017-03-30T08:11:24.692Z,0
2017-03-30T08:11:52.854Z,0
2017-03-30T08:12:20.899Z,0
2017-03-30T08:12:49.857Z,0
2017-03-30T08:14:00.801Z,0
2017-03-30T08:14:29.830Z,0
2017-03-30T08:16:58.439Z,0
2017-03-30T08:17:26.591Z,0
2017-03-30T08:19:38.365Z,0
2017-03-30T08:20:06.613Z,0
2017-03-30T08:20:34.866Z,0
2017-03-30T08:21:03.897Z,0
2017-03-30T08:22:38.294Z,0
2017-03-30T08:23:06.481Z,0
2017-03-30T08:25:18.183Z,0
2017-03-30T08:26:46.179Z,0
2017-03-30T08:27:58.121Z,0
2017-03-30T08:28:26.236Z,0
2017-03-30T08:30:38.127Z,0
2017-03-30T08:31:06.377Z,0
2017-03-30T08:31:34.621Z,0
2017-03-30T08:32:03.431Z,0
2017-03-30T08:32:31.563Z,0
2017-03-30T08:33:00.680Z,0
2017-03-30T08:33:29.024Z,0
2017-03-30T08:34:40.191Z,0
2017-03-30T08:35:09.090Z,0
2017-03-30T08:37:37.893Z,0
2017-03-30T08:38:06.059Z,0
2017-03-30T08:39:17.872Z,0
2017-03-30T08:39:46.141Z,0
2017-03-30T08:40:14.444Z,0
2017-03-30T08:40:43.382Z,0
2017-03-30T08:42:17.748Z,0
2017-03-30T08:42:46.021Z,0
2017-03-30T08:43:14.335Z,0
2017-03-30T08:43:43.412Z,0
2017-03-30T08:46:17.630Z,0
2017-03-30T08:46:45.715Z,0
2017-03-30T08:47:57.601Z,0
2017-03-30T08:48:25.844Z,0
2017-03-30T08:49:37.588Z,0
2017-03-30T08:50:05.671Z,0
2017-03-30T08:50:34.406Z,0
2017-03-30T08:51:57.472Z,0
2017-03-30T08:52:25.514Z,0
2017-03-30T08:52:54.427Z,0
2017-03-30T08:55:17.467Z,0
2017-03-30T08:55:45.674Z,0
2017-03-30T08:57:57.915Z,0
2017-03-30T08:58:26.064Z,0
2017-03-30T08:58:54.123Z,0
2017-03-30T09:00:17.374Z,0
2017-03-30T09:00:45.589Z,0
2017-03-30T09:01:13.855Z,0
2017-03-30T09:01:42.820Z,0
2017-03-30T09:06:17.134Z,0
2017-03-30T09:06:45.382Z,5
2017-03-30T09:07:57.266Z,5
2017-03-30T09:08:25.417Z,5
2017-03-30T09:09:37.127Z,5
2017-03-30T09:10:05.143Z,5
2017-03-30T09:11:16.836Z,10
2017-03-30T09:11:45.070Z,10
2017-03-30T09:12:14.032Z,10
2017-03-30T09:13:36.683Z,15
2017-03-30T09:14:04.829Z,15
2017-03-30T09:14:33.867Z,15
2017-03-30T09:16:56.927Z,20
2017-03-30T09:17:25.186Z,25
2017-03-30T09:17:53.470Z,25
2017-03-30T09:18:22.563Z,25
2017-03-30T09:21:56.795Z,35
2017-03-30T09:22:25.043Z,35
2017-03-30T09:24:36.730Z,40
2017-03-30T09:25:04.989Z,40
2017-03-30T09:25:33.267Z,45
2017-03-30T09:26:02.281Z,45
2017-03-30T09:27:36.729Z,45
2017-03-30T09:28:04.908Z,50
2017-03-30T09:28:33.193Z,50
2017-03-30T09:29:02.095Z,50
2017-03-30T09:29:30.191Z,50
2017-03-30T09:29:59.137Z,50
2017-03-30T09:31:16.649Z,55
2017-03-30T09:31:44.712Z,55
2017-03-30T09:33:56.577Z,55
2017-03-30T09:34:24.835Z,55
2017-03-30T09:34:53.018Z,55
2017-03-30T09:35:22.072Z,55
2017-03-30T09:36:56.514Z,55
2017-03-30T09:37:24.698Z,55
2017-03-30T09:37:52.852Z,55
2017-03-30T09:38:21.897Z,55
2017-03-30T09:40:56.303Z,65
2017-03-30T09:41:24.525Z,70
2017-03-30T09:42:36.201Z,85
2017-03-30T09:43:05.095Z,90
2017-03-30T09:43:33.212Z,90
2017-03-30T09:44:01.483Z,95
2017-03-30T09:44:29.705Z,95
2017-03-30T09:44:58.724Z,100
2017-03-30T09:46:16.256Z,115
2017-03-30T09:46:44.296Z,120
2017-03-30T09:47:56.165Z,130
2017-03-30T09:48:24.338Z,130
2017-03-30T09:51:36.072Z,125
2017-03-30T09:52:04.305Z,130
2017-03-30T09:57:15.924Z,145
2017-03-30T10:00:45.887Z,165
2017-03-30T10:01:14.333Z,160
2017-03-30T10:02:47.978Z,190
2017-03-30T10:03:16.918Z,215
2017-03-30T10:04:46.300Z,340
2017-03-30T10:05:16.139Z,675
2017-03-30T10:05:48.126Z,715
2017-03-30T10:07:26.692Z,950
2017-03-30T10:07:58.531Z,885
2017-03-30T10:09:35.830Z,675
2017-03-30T10:11:05.981Z,580
2017-03-30T10:11:35.444Z,615
2017-03-30T10:12:03.777Z,740
2017-03-30T10:13:15.577Z,840
2017-03-30T10:13:43.808Z,890
2017-03-30T10:14:11.992Z,905
2017-03-30T10:14:40.975Z,875
2017-03-30T10:18:15.489Z,1210
2017-03-30T10:18:43.650Z,870
2017-03-30T10:22:55.282Z,475
2017-03-30T10:23:23.748Z,635
2017-03-30T10:23:52.536Z,790
2017-03-30T10:24:21.947Z,1000
2017-03-30T10:24:51.014Z,1030
2017-03-30T10:28:25.258Z,545
2017-03-30T10:28:53.451Z,440
2017-03-30T10:29:21.551Z,390
2017-03-30T10:29:50.544Z,350
2017-03-30T10:31:24.908Z,315
2017-03-30T10:31:53.009Z,330
2017-03-30T10:32:22.154Z,350
2017-03-30T10:32:50.247Z,370
2017-03-30T10:33:18.495Z,385
2017-03-30T10:33:47.541Z,395
2017-03-30T10:37:04.889Z,415
2017-03-30T10:37:33.038Z,420
2017-03-30T10:38:01.910Z,440
2017-03-30T10:39:24.863Z,470
2017-03-30T10:39:52.995Z,490
2017-03-30T10:41:04.979Z,515
2017-03-30T10:41:33.250Z,530
2017-03-30T10:42:01.389Z,540
2017-03-30T10:42:30.346Z,550
2017-03-30T10:42:58.505Z,560
2017-03-30T10:43:27.442Z,565
2017-03-30T10:45:44.710Z,640
2017-03-30T10:46:12.845Z,655
2017-03-30T10:47:24.695Z,695
2017-03-30T10:47:52.844Z,680
2017-03-30T10:49:04.757Z,670
2017-03-30T10:49:32.915Z,640
2017-03-30T10:51:44.720Z,655
2017-03-30T10:52:12.919Z,670
2017-03-30T10:54:24.627Z,975
2017-03-30T10:54:52.866Z,965
2017-03-30T10:55:21.106Z,995
2017-03-30T10:55:49.945Z,970
2017-03-30T10:58:24.421Z,595
2017-03-30T10:58:52.438Z,580
2017-03-30T10:59:21.348Z,555
2017-03-30T11:03:44.383Z,565
2017-03-30T11:04:12.432Z,565
2017-03-30T11:05:24.300Z,645
2017-03-30T11:05:52.429Z,655
2017-03-30T11:08:03.816Z,805
2017-03-30T11:08:31.885Z,870
2017-03-30T11:09:00.894Z,955
2017-03-30T11:09:29.932Z,895
2017-03-30T11:09:58.262Z,800
2017-03-30T11:10:26.345Z,1360
2017-03-30T11:10:55.357Z,885
2017-03-30T11:11:24.226Z,905
2017-03-30T11:11:52.503Z,780
2017-03-30T11:12:20.536Z,765
2017-03-30T11:12:49.664Z,770
2017-03-30T11:13:18.338Z,850
2017-03-30T11:13:46.683Z,915
2017-03-30T11:16:04.109Z,850
2017-03-30T11:16:32.377Z,1055
2017-03-30T11:17:00.534Z,780
2017-03-30T11:17:28.509Z,895
2017-03-30T11:17:56.737Z,870
2017-03-30T11:18:24.942Z,1295
2017-03-30T11:18:53.910Z,930
2017-03-30T11:19:22.106Z,1045
2017-03-30T11:22:33.867Z,850
2017-03-30T11:23:02.086Z,2635
2017-03-30T11:24:13.910Z,715
2017-03-30T11:24:42.073Z,700
2017-03-30T11:25:10.309Z,710
2017-03-30T11:25:39.314Z,710
2017-03-30T11:27:13.685Z,785
2017-03-30T11:27:41.882Z,990
2017-03-30T11:29:53.784Z,870
2017-03-30T11:30:21.962Z,965
2017-03-30T11:30:50.194Z,1565
2017-03-30T11:31:19.256Z,2005
2017-03-30T11:33:53.666Z,965
2017-03-30T11:34:21.848Z,890
2017-03-30T11:34:50.050Z,845
2017-03-30T11:35:19.131Z,800
2017-03-30T11:35:48.915Z,705
2017-03-30T11:36:17.163Z,635
2017-03-30T11:36:46.025Z,605
2017-03-30T11:39:03.417Z,820
2017-03-30T11:39:31.596Z,1050
2017-03-30T11:40:43.484Z,875
2017-03-30T11:41:11.748Z,1000
2017-03-30T11:41:39.920Z,2090
2017-03-30T11:42:08.843Z,2740
2017-03-30T11:42:37.001Z,2780
2017-03-30T11:43:06.197Z,2695
2017-03-30T11:43:34.600Z,2700
2017-03-30T11:45:03.335Z,2360
2017-03-30T11:45:31.440Z,2635
2017-03-30T11:47:31.262Z,2220
2017-03-30T11:48:00.210Z,1275
2017-03-30T11:50:23.277Z,2480
2017-03-30T11:50:51.429Z,2430
2017-03-30T11:52:03.174Z,2680
2017-03-30T11:52:31.255Z,2660
2017-03-30T11:53:43.135Z,2600
2017-03-30T11:54:11.368Z,2640
2017-03-30T11:56:23.124Z,2635
2017-03-30T11:56:51.283Z,2695
2017-03-30T11:57:19.563Z,2725
2017-03-30T11:57:48.580Z,2715
2017-03-30T12:00:22.968Z,2315
2017-03-30T12:00:51.149Z,1370
2017-03-30T12:03:02.937Z,2755
2017-03-30T12:03:31.120Z,2890
2017-03-30T12:05:42.900Z,2305
2017-03-30T12:06:10.971Z,595
2017-03-30T12:07:22.878Z,610
2017-03-30T12:07:51.155Z,630
2017-03-30T12:08:19.465Z,1545
2017-03-30T12:08:48.390Z,1570
2017-03-30T12:09:16.815Z,3150
2017-03-30T12:10:33.757Z,2800
2017-03-30T12:11:02.643Z,1725
2017-03-30T12:11:30.918Z,1045
2017-03-30T12:13:42.669Z,2475
2017-03-30T12:14:10.938Z,3080
2017-03-30T12:17:22.575Z,3285
2017-03-30T12:17:50.844Z,2910
2017-03-30T12:18:19.099Z,2530
2017-03-30T12:18:48.054Z,2160
2017-03-30T12:19:16.106Z,3370
2017-03-30T12:19:45.133Z,575
2017-03-30T12:20:13.445Z,2025
2017-03-30T12:20:42.453Z,2750
2017-03-30T12:21:10.716Z,1710
2017-03-30T12:21:39.113Z,1390
2017-03-30T12:22:07.900Z,1695
2017-03-30T12:22:36.071Z,860
2017-03-30T12:23:05.074Z,2105
2017-03-30T12:23:33.199Z,3160
2017-03-30T12:24:02.147Z,3395
2017-03-30T12:24:30.391Z,3385
2017-03-30T12:27:42.357Z,965
2017-03-30T12:28:10.493Z,1140
2017-03-30T12:30:22.402Z,565
2017-03-30T12:30:50.469Z,530
2017-03-30T12:34:02.197Z,710
2017-03-30T12:34:30.328Z,525
2017-03-30T12:35:41.796Z,2195
2017-03-30T12:36:10.015Z,1605
2017-03-30T12:36:39.067Z,555
2017-03-30T12:39:01.812Z,1595
2017-03-30T12:39:29.843Z,665
2017-03-30T12:39:58.862Z,1910
2017-03-30T12:45:21.952Z,550
2017-03-30T12:45:50.197Z,905
2017-03-30T12:46:18.355Z,580
2017-03-30T12:46:46.456Z,1405
2017-03-30T12:48:03.036Z,515
2017-03-30T12:50:31.775Z,1850
2017-03-30T12:50:59.984Z,895
2017-03-30T12:53:11.759Z,1600
2017-03-30T12:53:40.046Z,430
2017-03-30T12:54:08.203Z,3405
2017-03-30T12:54:37.073Z,1675
2017-03-30T12:55:05.239Z,515
2017-03-30T12:55:34.117Z,2090
2017-03-30T12:56:51.207Z,3920
2017-03-30T12:57:19.380Z,2575
2017-03-30T12:57:48.385Z,3965
2017-03-30T12:59:11.582Z,3825
2017-03-30T12:59:39.586Z,430
2017-03-30T13:01:39.523Z,1010
2017-03-30T13:02:50.374Z,1555
2017-03-30T13:03:18.384Z,1615
2017-03-30T13:05:41.315Z,3720
2017-03-30T13:06:09.556Z,525
2017-03-30T13:09:21.249Z,1490
2017-03-30T13:09:49.524Z,2195
2017-03-30T13:14:01.221Z,640
2017-03-30T13:14:29.411Z,2280
2017-03-30T13:14:57.655Z,650
2017-03-30T13:15:26.659Z,540
2017-03-30T13:19:01.064Z,475
2017-03-30T13:19:29.220Z,550
2017-03-30T13:24:40.867Z,515
2017-03-30T13:25:09.043Z,1680
2017-03-30T13:27:20.794Z,440
2017-03-30T13:27:49.046Z,790
2017-03-30T13:29:00.385Z,380
2017-03-30T13:29:28.693Z,395
2017-03-30T13:29:57.694Z,1885
2017-03-30T13:31:20.669Z,435
2017-03-30T13:31:48.935Z,1480
2017-03-30T13:35:00.648Z,1000
2017-03-30T13:35:28.908Z,665
2017-03-30T13:38:40.605Z,1370
2017-03-30T13:39:08.887Z,2015
2017-03-30T13:41:20.547Z,850
2017-03-30T13:41:48.678Z,1445
2017-03-30T13:43:00.544Z,870
2017-03-30T13:43:28.602Z,680
2017-03-30T13:44:40.026Z,580
2017-03-30T13:45:08.280Z,2090
2017-03-30T13:45:37.104Z,545
2017-03-30T13:47:00.387Z,2965
2017-03-30T13:47:28.613Z,3025
2017-03-30T13:47:56.897Z,3045
2017-03-30T13:48:25.849Z,1735
2017-03-30T13:50:00.371Z,1065
2017-03-30T13:50:28.534Z,2415
2017-03-30T13:52:28.266Z,2785
2017-03-30T13:52:57.091Z,1735
2017-03-30T13:54:20.226Z,2245
2017-03-30T13:54:48.535Z,1510
2017-03-30T13:55:16.792Z,930
2017-03-30T13:55:45.672Z,1230
2017-03-30T13:56:13.807Z,1650
2017-03-30T13:56:42.869Z,495
2017-03-30T13:57:11.026Z,1745
2017-03-30T13:57:40.028Z,3080
2017-03-30T13:58:08.187Z,1015
2017-03-30T14:01:20.103Z,3255
2017-03-30T14:01:48.257Z,3265
2017-03-30T14:04:00.018Z,3190
2017-03-30T14:04:28.171Z,3190
2017-03-30T14:05:39.516Z,3260
2017-03-30T14:06:07.809Z,3285
2017-03-30T14:06:36.855Z,3310
2017-03-30T14:07:59.843Z,3125